Time;durP1;ratioP1;P1;durP2;ratioP2;P2;SDS_P1;SDS_P2;PMS_P1;PMS_P2;Temp;Humidity;BMP_temperature;BMP_pressure;BME280_temperature;BME280_humidity;BME280_pressure;Samples;Min_cycle;Max_cycle;Signal;HPM_P1;HPM_P2
2023/06/20 00:01:03;;;;;;;1.35;1.25;;;20.20;96.40;;;;;;5015275;28;20034;-78
2023/06/20 00:03:29;;;;;;;0.98;0.98;;;20.20;96.80;;;;;;5016388;28;20156;-78
2023/06/20 00:05:54;;;;;;;0.95;0.95;;;20.20;97.10;;;;;;5024274;28;20085;-78
2023/06/20 00:08:20;;;;;;;1.00;1.00;;;20.10;97.20;;;;;;5022171;28;20100;-78
2023/06/20 00:10:45;;;;;;;1.00;1.00;;;20.10;97.10;;;;;;5017445;28;20372;-79
2023/06/20 00:13:11;;;;;;;0.80;0.80;;;20.10;97.00;;;;;;4998100;28;20021;-77
2023/06/20 00:15:37;;;;;;;0.95;0.95;;;20.10;96.90;;;;;;4996498;28;20026;-77
2023/06/20 00:18:02;;;;;;;0.85;0.85;;;20.00;96.70;;;;;;5014289;28;20117;-78
2023/06/20 00:20:30;;;;;;;0.90;0.90;;;20.00;96.70;;;;;;5016121;28;20022;-78
2023/06/20 00:22:56;;;;;;;0.70;0.70;;;19.90;96.60;;;;;;5015111;28;20044;-78
2023/06/20 00:25:22;;;;;;;0.75;0.75;;;19.90;97.00;;;;;;5015763;28;20030;-78
2023/06/20 00:27:48;;;;;;;1.20;1.10;;;19.90;97.50;;;;;;5014956;28;20164;-78
2023/06/20 00:30:14;;;;;;;1.00;1.00;;;19.90;97.90;;;;;;5018200;28;20061;-78
2023/06/20 00:32:40;;;;;;;1.17;1.08;;;19.80;98.20;;;;;;5013501;28;20108;-78
2023/06/20 00:35:06;;;;;;;1.70;1.60;;;19.70;98.40;;;;;;5015503;28;20155;-78
2023/06/20 00:37:34;;;;;;;1.65;1.48;;;19.60;98.60;;;;;;5014810;28;20028;-78
2023/06/20 00:39:59;;;;;;;1.40;1.30;;;19.60;99.10;;;;;;5014222;28;20034;-78
2023/06/20 00:42:25;;;;;;;1.25;1.23;;;19.50;99.70;;;;;;5016831;28;20026;-78
2023/06/20 00:44:52;;;;;;;1.73;1.63;;;19.50;99.90;;;;;;5017139;28;20048;-78
2023/06/20 00:47:18;;;;;;;1.45;1.35;;;19.50;99.90;;;;;;5031845;28;20049;-77
2023/06/20 00:49:49;;;;;;;1.25;1.15;;;19.50;99.90;;;;;;5023262;28;21958;-77
2023/06/20 00:52:17;;;;;;;1.27;1.23;;;19.50;99.90;;;;;;4995925;28;20048;-77
2023/06/20 00:54:48;;;;;;;1.00;1.00;;;19.50;99.90;;;;;;5012465;28;20045;-77
2023/06/20 00:57:15;;;;;;;1.52;1.42;;;19.40;99.90;;;;;;5030311;28;20426;-77
2023/06/20 00:59:48;;;;;;;1.60;1.50;;;19.40;99.90;;;;;;5042355;28;20037;-77
2023/06/20 01:02:14;;;;;;;1.63;1.52;;;19.40;99.90;;;;;;5029441;28;20533;-77
2023/06/20 01:04:44;;;;;;;1.48;1.38;;;19.40;99.90;;;;;;5017228;28;20113;-79
2023/06/20 01:07:58;;;;;;;1.17;1.17;;;19.40;99.90;;;;;;5016780;28;20025;-77
2023/06/20 01:10:38;;;;;;;1.15;1.15;;;19.30;99.90;;;;;;5016925;28;20034;-78
2023/06/20 01:13:37;;;;;;;1.08;1.08;;;19.40;99.90;;;;;;5017412;28;20332;-78
2023/06/20 01:16:30;;;;;;;1.00;1.00;;;19.40;99.90;;;;;;5017943;28;20160;-76
2023/06/20 01:19:13;;;;;;;1.27;1.27;;;19.30;99.90;;;;;;5016913;28;20030;-77
2023/06/20 01:21:58;;;;;;;1.23;1.13;;;19.40;99.90;;;;;;5016941;28;20026;-78
2023/06/20 01:24:49;;;;;;;1.20;1.10;;;19.30;99.90;;;;;;5015783;28;20034;-77
2023/06/20 01:27:36;;;;;;;1.10;1.10;;;19.40;99.90;;;;;;5017699;28;20545;-77
2023/06/20 01:30:20;;;;;;;1.25;1.20;;;19.40;99.90;;;;;;5014364;28;20037;-78
2023/06/20 01:32:48;;;;;;;0.90;0.90;;;19.30;99.90;;;;;;5020726;28;20598;-78
2023/06/20 01:35:18;;;;;;;1.13;1.13;;;19.30;99.90;;;;;;5006045;28;20045;-78
2023/06/20 01:37:48;;;;;;;0.93;0.93;;;19.30;99.90;;;;;;5027130;28;20034;-79
2023/06/20 01:40:17;;;;;;;0.80;0.80;;;19.40;99.90;;;;;;5015025;28;20145;-77
2023/06/20 01:42:44;;;;;;;0.70;0.70;;;19.40;99.90;;;;;;5016687;28;20025;-77
2023/06/20 01:45:12;;;;;;;0.68;0.68;;;19.50;99.90;;;;;;5015777;28;20022;-77
2023/06/20 01:47:40;;;;;;;0.90;0.90;;;19.60;99.90;;;;;;5018639;28;20029;-78
2023/06/20 01:50:07;;;;;;;0.80;0.80;;;19.70;99.90;;;;;;5018446;28;20041;-78
2023/06/20 01:52:35;;;;;;;0.90;0.90;;;19.70;99.90;;;;;;5017708;28;20029;-77
2023/06/20 01:55:04;;;;;;;1.00;1.00;;;19.80;99.90;;;;;;5025619;28;20014;-77
2023/06/20 01:57:33;;;;;;;0.90;0.90;;;19.80;99.90;;;;;;5015893;28;20090;-77
2023/06/20 01:59:59;;;;;;;0.98;0.98;;;19.80;99.90;;;;;;5007223;28;20034;-78
2023/06/20 02:02:27;;;;;;;0.80;0.80;;;19.80;99.90;;;;;;5008917;28;20022;-79
2023/06/20 02:04:56;;;;;;;0.80;0.80;;;19.80;99.90;;;;;;5024185;28;20105;-77
2023/06/20 02:07:23;;;;;;;1.00;1.00;;;19.80;99.90;;;;;;5022210;28;20208;-77
2023/06/20 02:09:49;;;;;;;1.00;1.00;;;19.80;99.90;;;;;;5016542;28;20407;-78
2023/06/20 02:12:16;;;;;;;1.20;1.20;;;19.80;99.90;;;;;;5022350;28;20038;-77
2023/06/20 02:14:43;;;;;;;0.90;0.90;;;19.80;99.90;;;;;;5022619;28;20029;-77
2023/06/20 02:17:14;;;;;;;0.80;0.80;;;19.80;99.90;;;;;;5017861;28;20026;-78
2023/06/20 02:19:40;;;;;;;0.75;0.75;;;19.80;99.90;;;;;;5015580;28;20022;-78
2023/06/20 02:22:07;;;;;;;0.98;0.98;;;19.70;99.90;;;;;;5015201;28;20029;-78
2023/06/20 02:24:36;;;;;;;0.90;0.90;;;19.70;99.90;;;;;;5015110;28;20033;-77
2023/06/20 02:27:03;;;;;;;0.93;0.93;;;19.70;99.90;;;;;;5016497;28;20049;-77
2023/06/20 02:29:34;;;;;;;1.00;1.00;;;19.80;99.90;;;;;;5019366;28;20069;-77
2023/06/20 02:32:02;;;;;;;1.58;1.48;;;19.80;99.90;;;;;;5017310;28;20022;-77
2023/06/20 02:34:31;;;;;;;3.88;3.33;;;19.80;99.90;;;;;;5019298;28;20152;-77
2023/06/20 02:36:58;;;;;;;3.30;3.05;;;19.80;99.90;;;;;;5023188;28;20135;-77
2023/06/20 02:39:24;;;;;;;3.28;3.03;;;19.90;99.90;;;;;;5023462;28;20029;-77
2023/06/20 02:41:50;;;;;;;3.10;2.80;;;19.90;99.90;;;;;;5020929;28;20018;-77
2023/06/20 02:44:15;;;;;;;3.30;3.10;;;19.80;99.90;;;;;;5022803;28;20061;-78
2023/06/20 02:47:00;;;;;;;3.40;3.10;;;19.90;99.90;;;;;;5024405;28;20033;-77
2023/06/20 02:49:52;;;;;;;3.22;2.95;;;19.90;99.90;;;;;;5021350;28;20514;-77
2023/06/20 02:52:42;;;;;;;3.60;3.30;;;19.90;99.90;;;;;;5017303;28;20034;-77
2023/06/20 02:55:17;;;;;;;3.45;3.17;;;19.90;99.90;;;;;;5015023;28;20022;-77
2023/06/20 02:57:50;;;;;;;4.10;3.35;;;19.90;99.90;;;;;;5013841;28;20022;-77
2023/06/20 03:00:16;;;;;;;4.10;3.60;;;19.90;99.90;;;;;;5019045;28;20029;-77
2023/06/20 03:02:49;;;;;;;3.70;3.40;;;19.80;99.90;;;;;;5016367;28;20033;-77
2023/06/20 03:05:18;;;;;;;3.85;3.30;;;19.80;99.90;;;;;;5015802;28;20026;-77
2023/06/20 03:07:44;;;;;;;4.03;3.72;;;19.70;99.90;;;;;;5016223;28;20040;-77
2023/06/20 03:10:10;;;;;;;5.32;4.00;;;19.70;99.90;;;;;;5019726;28;20589;-77
2023/06/20 03:12:38;;;;;;;3.33;3.13;;;19.70;99.90;;;;;;5025585;28;20032;-77
2023/06/20 03:15:04;;;;;;;2.88;2.67;;;19.70;99.90;;;;;;5021464;28;20546;-77
2023/06/20 03:17:35;;;;;;;4.60;4.13;;;19.60;99.90;;;;;;5021638;28;20482;-77
2023/06/20 03:20:03;;;;;;;3.88;3.40;;;19.60;99.80;;;;;;5012917;28;20478;-77
2023/06/20 03:22:30;;;;;;;3.50;3.20;;;19.50;99.60;;;;;;5013315;28;20029;-77
2023/06/20 03:24:55;;;;;;;3.50;3.20;;;19.50;99.40;;;;;;5012801;28;20034;-76
2023/06/20 03:27:21;;;;;;;4.03;3.67;;;19.50;98.90;;;;;;5004570;28;20049;-77
2023/06/20 03:29:46;;;;;;;4.05;3.65;;;19.50;98.60;;;;;;5013155;28;20095;-75
2023/06/20 03:32:12;;;;;;;3.13;2.92;;;19.50;98.70;;;;;;5013151;28;20040;-74
2023/06/20 03:34:38;;;;;;;3.42;3.10;;;19.50;98.50;;;;;;5012386;28;20022;-75
2023/06/20 03:37:04;;;;;;;3.33;3.05;;;19.60;98.40;;;;;;5012896;28;20419;-74
2023/06/20 03:39:29;;;;;;;3.03;2.83;;;19.70;98.10;;;;;;5011686;28;20030;-75
2023/06/20 03:41:55;;;;;;;3.47;3.17;;;19.80;97.80;;;;;;5011835;28;20053;-76
2023/06/20 03:44:21;;;;;;;5.20;3.13;;;19.80;97.50;;;;;;5011203;28;20040;-75
2023/06/20 03:46:46;;;;;;;2.90;2.70;;;19.90;97.20;;;;;;5012619;28;20034;-75
2023/06/20 03:49:12;;;;;;;3.40;3.10;;;19.90;97.00;;;;;;5011924;28;20038;-74
2023/06/20 03:51:39;;;;;;;3.50;2.80;;;20.00;96.80;;;;;;5012219;28;20025;-75
2023/06/20 03:54:04;;;;;;;3.28;2.97;;;20.00;96.70;;;;;;5012321;28;20360;-74
2023/06/20 03:56:30;;;;;;;3.30;3.08;;;20.00;96.60;;;;;;5011144;28;20036;-74
2023/06/20 03:58:56;;;;;;;3.42;3.10;;;20.00;96.30;;;;;;5016735;28;21255;-74
2023/06/20 04:01:24;;;;;;;3.00;2.80;;;20.00;96.30;;;;;;5023163;28;20471;-75
2023/06/20 04:03:50;;;;;;;3.00;2.72;;;19.90;96.30;;;;;;5016285;28;20521;-75
2023/06/20 04:06:16;;;;;;;3.13;2.83;;;19.90;96.40;;;;;;5014465;28;20037;-75
2023/06/20 04:08:42;;;;;;;2.97;2.78;;;19.80;96.60;;;;;;5013919;28;20034;-76
2023/06/20 04:11:08;;;;;;;2.65;2.45;;;19.90;96.70;;;;;;4999167;28;20084;-76
2023/06/20 04:13:33;;;;;;;2.75;2.55;;;19.80;96.80;;;;;;5012651;28;20014;-75
2023/06/20 04:15:59;;;;;;;2.70;2.50;;;19.70;97.10;;;;;;5012154;28;20478;-76
2023/06/20 04:18:25;;;;;;;3.90;3.25;;;19.70;97.40;;;;;;5012466;28;20025;-76
2023/06/20 04:20:51;;;;;;;3.13;2.90;;;19.70;97.60;;;;;;5011973;28;20026;-76
2023/06/20 04:23:16;;;;;;;3.00;2.80;;;19.80;97.60;;;;;;5012679;28;20052;-76
2023/06/20 04:25:42;;;;;;;2.95;2.75;;;19.80;97.70;;;;;;5014665;28;20505;-76
2023/06/20 04:28:09;;;;;;;3.08;2.88;;;19.90;97.70;;;;;;5010683;28;20120;-78
2023/06/20 04:30:34;;;;;;;3.00;2.72;;;20.00;97.60;;;;;;5013132;28;20026;-77
2023/06/20 04:33:00;;;;;;;2.35;2.17;;;20.00;97.40;;;;;;5013018;28;20368;-76
2023/06/20 04:35:26;;;;;;;2.78;2.58;;;20.10;97.20;;;;;;5012758;28;20086;-76
2023/06/20 04:37:52;;;;;;;2.65;2.45;;;20.10;97.00;;;;;;5012933;28;20116;-76
2023/06/20 04:40:18;;;;;;;2.90;2.70;;;20.20;97.00;;;;;;5022324;28;20034;-75
2023/06/20 04:42:47;;;;;;;2.60;2.40;;;20.30;96.60;;;;;;5031566;28;20037;-75
2023/06/20 04:45:13;;;;;;;2.60;2.40;;;20.40;96.40;;;;;;5031916;28;20450;-75
2023/06/20 04:47:41;;;;;;;2.75;2.55;;;20.50;96.20;;;;;;5031570;28;20034;-74
2023/06/20 04:50:09;;;;;;;2.30;2.10;;;20.60;96.00;;;;;;5029300;28;20065;-75
2023/06/20 04:52:35;;;;;;;2.63;2.42;;;20.70;95.70;;;;;;5015177;28;20466;-77
2023/06/20 04:55:03;;;;;;;2.63;2.42;;;20.90;95.40;;;;;;5016010;28;20022;-76
2023/06/20 04:57:33;;;;;;;2.40;2.20;;;20.90;94.90;;;;;;5010911;28;20025;-77
2023/06/20 04:59:59;;;;;;;2.30;2.20;;;21.00;94.80;;;;;;5019290;28;20144;-76
2023/06/20 05:02:25;;;;;;;2.40;2.30;;;21.10;94.60;;;;;;5030110;28;20036;-77
2023/06/20 05:04:52;;;;;;;2.33;2.22;;;21.10;94.30;;;;;;5019430;28;20034;-77
2023/06/20 05:07:18;;;;;;;2.50;2.35;;;21.30;94.10;;;;;;5019756;28;20376;-78
2023/06/20 05:09:44;;;;;;;2.33;2.22;;;21.60;94.10;;;;;;5016942;28;20121;-75
2023/06/20 05:12:10;;;;;;;2.13;2.00;;;22.20;93.20;;;;;;5015705;28;20514;-77
2023/06/20 05:14:36;;;;;;;2.25;2.13;;;23.00;91.70;;;;;;5016368;28;20053;-77
2023/06/20 05:17:02;;;;;;;1.80;1.70;;;;;;;;;;5017137;28;20022;-76
2023/06/20 05:19:28;;;;;;;2.22;2.03;;;25.40;84.00;;;;;;4998548;28;20048;-76
2023/06/20 05:21:53;;;;;;;2.05;1.85;;;26.20;79.80;;;;;;5023187;28;20023;-77
2023/06/20 05:24:19;;;;;;;2.72;2.53;;;27.00;75.90;;;;;;5014843;28;20038;-81
2023/06/20 05:26:45;;;;;;;2.15;2.03;;;;;;;;;;5010340;28;20038;-82
2023/06/20 05:29:10;;;;;;;2.33;2.20;;;28.80;68.30;;;;;;5014737;28;20030;-81
2023/06/20 05:31:41;;;;;;;2.03;1.92;;;29.80;64.10;;;;;;5013752;28;20053;-79
2023/06/20 05:34:07;;;;;;;2.10;2.00;;;29.20;62.50;;;;;;5019416;28;20022;-80
2023/06/20 05:36:32;;;;;;;1.77;1.67;;;28.60;63.80;;;;;;5018848;28;20034;-78
2023/06/20 05:38:58;;;;;;;1.90;1.80;;;;;;;;;;5017144;28;20041;-77
2023/06/20 05:41:25;;;;;;;2.00;1.90;;;;;;;;;;4998330;28;20076;-78
2023/06/20 05:43:51;;;;;;;2.38;2.28;;;27.30;65.60;;;;;;5015754;28;20391;-78
2023/06/20 05:46:16;;;;;;;2.25;2.15;;;27.20;66.80;;;;;;5017018;28;20026;-77
2023/06/20 05:48:43;;;;;;;2.25;2.15;;;27.10;67.90;;;;;;5016633;28;20025;-79
2023/06/20 05:51:13;;;;;;;2.10;2.00;;;27.90;67.50;;;;;;5016004;28;20018;-78
2023/06/20 05:53:42;;;;;;;2.25;2.13;;;29.20;64.50;;;;;;5016922;28;20026;-77
2023/06/20 05:56:09;;;;;;;1.70;1.60;;;30.80;61.20;;;;;;5016337;28;20049;-79
2023/06/20 05:58:35;;;;;;;2.53;2.33;;;32.00;57.80;;;;;;5002481;28;20090;-78
2023/06/20 06:01:01;;;;;;;2.28;2.10;;;32.70;56.10;;;;;;5001592;28;20138;-77
2023/06/20 06:03:27;;;;;;;2.28;2.17;;;32.40;53.90;;;;;;5009992;28;20068;-77
2023/06/20 06:05:52;;;;;;;2.30;2.10;;;31.20;55.30;;;;;;5019375;28;20034;-77
2023/06/20 06:08:19;;;;;;;1.92;1.83;;;30.30;58.00;;;;;;5014913;28;20038;-77
2023/06/20 06:10:45;;;;;;;1.80;1.70;;;30.60;57.80;;;;;;5014278;28;20447;-77
2023/06/20 06:13:11;;;;;;;1.77;1.67;;;30.70;58.70;;;;;;5014214;28;20030;-77
2023/06/20 06:15:36;;;;;;;1.80;1.70;;;30.90;57.50;;;;;;5014213;28;20052;-77
2023/06/20 06:18:03;;;;;;;1.83;1.73;;;30.90;57.20;;;;;;5014587;28;20022;-77
2023/06/20 06:20:29;;;;;;;1.90;1.80;;;30.70;57.30;;;;;;5014495;28;20022;-76
2023/06/20 06:22:55;;;;;;;2.25;2.15;;;30.10;57.50;;;;;;5014740;28;20387;-77
2023/06/20 06:25:21;;;;;;;2.70;2.50;;;29.70;58.50;;;;;;5000738;28;20025;-77
2023/06/20 06:27:46;;;;;;;2.30;2.20;;;28.80;59.70;;;;;;5027580;28;20034;-77
2023/06/20 06:30:14;;;;;;;2.42;2.33;;;27.60;61.90;;;;;;4993916;28;20045;-76
2023/06/20 06:32:42;;;;;;;2.38;2.17;;;26.60;64.50;;;;;;4995551;28;20068;-76
2023/06/20 06:35:10;;;;;;;2.30;2.20;;;;;;;;;;5007386;28;20164;-77
2023/06/20 06:37:35;;;;;;;2.17;1.98;;;25.30;68.50;;;;;;5014456;28;20379;-77
2023/06/20 06:40:04;;;;;;;2.10;2.00;;;25.10;70.50;;;;;;4996496;28;20032;-77
2023/06/20 06:42:30;;;;;;;2.45;2.25;;;25.00;71.30;;;;;;5015362;28;20022;-76
2023/06/20 06:44:56;;;;;;;2.00;1.90;;;24.90;71.90;;;;;;5013470;28;20076;-77
2023/06/20 06:47:22;;;;;;;2.20;2.05;;;25.10;72.30;;;;;;5014995;28;20108;-76
2023/06/20 06:49:47;;;;;;;2.30;2.20;;;25.20;72.20;;;;;;4981328;28;20036;-76
2023/06/20 06:52:13;;;;;;;2.05;1.95;;;25.20;71.90;;;;;;5020505;28;20085;-76
2023/06/20 06:54:39;;;;;;;2.17;2.08;;;25.10;72.10;;;;;;5035479;28;20063;-77
2023/06/20 06:57:05;;;;;;;2.13;2.03;;;25.00;72.30;;;;;;5015967;28;20097;-77
2023/06/20 06:59:30;;;;;;;2.17;1.88;;;24.80;72.70;;;;;;5015081;28;20026;-76
2023/06/20 07:01:56;;;;;;;2.20;2.10;;;24.50;73.60;;;;;;4996533;28;20032;-77
2023/06/20 07:04:22;;;;;;;2.50;2.30;;;24.20;74.50;;;;;;5015491;28;20037;-77
2023/06/20 07:06:47;;;;;;;2.38;2.28;;;23.80;75.60;;;;;;5015806;28;20058;-77
2023/06/20 07:09:13;;;;;;;2.13;2.03;;;23.60;76.70;;;;;;5014609;28;20064;-76
2023/06/20 07:11:39;;;;;;;1.80;1.70;;;23.40;77.80;;;;;;5014723;28;20030;-76
2023/06/20 07:14:05;;;;;;;1.90;1.80;;;23.30;78.70;;;;;;5015566;28;20026;-77
2023/06/20 07:16:31;;;;;;;2.00;1.90;;;23.30;79.30;;;;;;5015820;28;20072;-76
2023/06/20 07:18:58;;;;;;;2.80;1.95;;;23.20;79.60;;;;;;5015686;28;20080;-77
2023/06/20 07:21:25;;;;;;;1.95;1.85;;;23.10;80.20;;;;;;5014631;28;20022;-77
2023/06/20 07:23:51;;;;;;;2.00;1.90;;;23.00;80.50;;;;;;5014356;28;20036;-76
2023/06/20 07:26:16;;;;;;;1.80;1.70;;;23.00;81.10;;;;;;5013681;28;20034;-76
2023/06/20 07:28:42;;;;;;;2.05;1.95;;;22.90;81.40;;;;;;4999033;28;20110;-77
2023/06/20 07:31:08;;;;;;;1.77;1.67;;;22.80;81.80;;;;;;4994547;28;20484;-77
2023/06/20 07:33:34;;;;;;;1.80;1.70;;;22.80;82.30;;;;;;4995584;28;20018;-77
2023/06/20 07:36:00;;;;;;;1.60;1.50;;;22.80;82.90;;;;;;4998801;28;20097;-77
2023/06/20 07:38:25;;;;;;;1.95;1.85;;;22.80;83.50;;;;;;5015782;28;20018;-77
2023/06/20 07:40:51;;;;;;;1.77;1.67;;;22.90;83.70;;;;;;5016810;28;20026;-77
2023/06/20 07:43:19;;;;;;;1.50;1.40;;;23.00;83.60;;;;;;5018685;28;20056;-77
2023/06/20 07:45:45;;;;;;;1.92;1.83;;;23.20;83.50;;;;;;5014099;28;20037;-77
2023/06/20 07:48:10;;;;;;;1.80;1.70;;;23.40;82.40;;;;;;5014648;28;20033;-77
2023/06/20 07:50:36;;;;;;;1.67;1.58;;;23.70;81.70;;;;;;5014009;28;20509;-78
2023/06/20 07:53:03;;;;;;;1.65;1.55;;;24.20;80.40;;;;;;4997087;28;20029;-77
2023/06/20 07:55:28;;;;;;;1.58;1.58;;;24.80;78.60;;;;;;4996022;28;20026;-77
2023/06/20 07:57:55;;;;;;;1.63;1.55;;;25.40;77.00;;;;;;5008248;28;20394;-76
2023/06/20 08:00:23;;;;;;;2.00;1.90;;;26.00;73.80;;;;;;5014877;28;20045;-77
2023/06/20 08:02:48;;;;;;;1.80;1.70;;;26.30;71.90;;;;;;4997226;28;20037;-77
2023/06/20 08:05:14;;;;;;;1.85;1.75;;;26.60;70.30;;;;;;5014620;28;20018;-79
2023/06/20 08:07:40;;;;;;;2.15;2.05;;;26.80;69.20;;;;;;5013638;28;20030;-77
2023/06/20 08:10:07;;;;;;;2.42;2.22;;;27.10;68.40;;;;;;5013659;28;20085;-78
2023/06/20 08:12:33;;;;;;;1.90;1.80;;;27.30;67.70;;;;;;5014374;28;20155;-76
2023/06/20 08:14:59;;;;;;;2.45;2.25;;;27.50;66.50;;;;;;5021657;28;20463;-76
2023/06/20 08:17:25;;;;;;;1.77;1.67;;;27.70;65.60;;;;;;5031398;28;20068;-77
2023/06/20 08:19:50;;;;;;;2.03;1.92;;;27.70;65.40;;;;;;5021296;28;20630;-78
2023/06/20 08:22:16;;;;;;;1.90;1.80;;;27.60;64.20;;;;;;5022719;28;20021;-75
2023/06/20 08:24:42;;;;;;;1.92;1.83;;;27.60;63.90;;;;;;5035013;28;20247;-78
2023/06/20 08:27:07;;;;;;;1.40;1.40;;;27.70;63.70;;;;;;5008429;28;20062;-79
2023/06/20 08:29:34;;;;;;;1.70;1.60;;;27.80;63.50;;;;;;5018998;28;20033;-78
2023/06/20 08:32:00;;;;;;;1.90;1.80;;;27.80;62.60;;;;;;5018419;28;20026;-77
2023/06/20 08:34:25;;;;;;;1.58;1.58;;;27.70;61.80;;;;;;5020700;28;20379;-79
2023/06/20 08:36:53;;;;;;;1.75;1.60;;;27.50;61.40;;;;;;5019096;28;20022;-77
2023/06/20 08:39:19;;;;;;;1.30;1.30;;;27.40;61.20;;;;;;5019243;28;20065;-78
2023/06/20 08:41:45;;;;;;;2.00;1.90;;;27.40;60.30;;;;;;5018493;28;20038;-78
2023/06/20 08:44:11;;;;;;;2.05;1.70;;;27.30;59.90;;;;;;5049294;22;20594;-74
2023/06/20 08:46:37;;;;;;;1.63;1.52;;;27.20;60.10;;;;;;5051676;28;20017;-75
2023/06/20 08:49:03;;;;;;;2.08;1.85;;;27.10;60.30;;;;;;5064291;28;20023;-74
2023/06/20 08:51:30;;;;;;;2.28;2.00;;;27.00;60.60;;;;;;5078592;28;20024;-74
2023/06/20 08:53:57;;;;;;;1.98;1.88;;;27.00;59.90;;;;;;5077589;28;20031;-74
2023/06/20 08:56:23;;;;;;;1.60;1.50;;;27.10;59.60;;;;;;5052535;28;20215;-73
2023/06/20 08:58:49;;;;;;;2.08;1.90;;;27.30;58.90;;;;;;5061191;28;20114;-75
2023/06/20 09:01:14;;;;;;;1.80;1.70;;;27.40;58.40;;;;;;5062520;28;20060;-73
2023/06/20 09:03:40;;;;;;;1.27;1.20;;;27.60;57.50;;;;;;5056553;28;20025;-74
2023/06/20 09:06:06;;;;;;;1.80;1.70;;;27.80;57.20;;;;;;5055764;28;20036;-72
2023/06/20 09:08:37;;;;;;;1.40;1.20;;;27.90;56.70;;;;;;5056116;28;20029;-73
2023/06/20 09:11:10;;;;;;;1.33;1.33;;;28.10;56.30;;;;;;5073970;28;20028;-74
2023/06/20 09:13:37;;;;;;;1.63;1.60;;;28.30;55.90;;;;;;5076299;28;20032;-74
2023/06/20 09:16:11;;;;;;;1.20;1.20;;;28.40;55.40;;;;;;5075052;28;20438;-74
2023/06/20 09:18:40;;;;;;;1.40;1.30;;;28.50;55.00;;;;;;5075210;28;20021;-73
2023/06/20 09:21:13;;;;;;;1.38;1.27;;;28.60;54.30;;;;;;5060817;28;20061;-73
2023/06/20 09:23:39;;;;;;;1.30;1.20;;;28.60;53.60;;;;;;5056826;28;20033;-74
2023/06/20 09:26:15;;;;;;;1.70;1.50;;;28.60;53.60;;;;;;5062504;28;20122;-74
2023/06/20 09:28:42;;;;;;;1.65;1.55;;;28.80;53.50;;;;;;5055493;28;20021;-74
2023/06/20 09:31:07;;;;;;;1.60;1.50;;;28.90;52.70;;;;;;5069168;28;20423;-75
2023/06/20 09:33:39;;;;;;;1.95;1.85;;;29.00;52.10;;;;;;5075078;28;20025;-74
2023/06/20 09:36:16;;;;;;;1.70;1.60;;;28.70;52.00;;;;;;5075964;28;20385;-74
2023/06/20 09:38:50;;;;;;;1.70;1.60;;;28.70;52.10;;;;;;5074898;28;20418;-75
2023/06/20 09:41:16;;;;;;;1.80;1.70;;;29.00;52.00;;;;;;5062995;28;20366;-74
2023/06/20 09:43:45;;;;;;;1.63;1.50;;;29.10;51.80;;;;;;5036960;28;20029;-74
2023/06/20 09:46:11;;;;;;;1.50;1.40;;;29.30;51.30;;;;;;5054972;28;20029;-74
2023/06/20 09:48:38;;;;;;;1.38;1.27;;;29.40;51.10;;;;;;5055229;28;20155;-74
2023/06/20 09:51:06;;;;;;;1.30;1.30;;;29.50;50.90;;;;;;5044330;28;20186;-74
2023/06/20 09:54:01;;;;;;;1.10;1.10;;;29.70;50.40;;;;;;5075218;28;20113;-75
2023/06/20 09:56:30;;;;;;;1.23;1.13;;;29.80;49.90;;;;;;5074575;28;20158;-75
2023/06/20 09:59:00;;;;;;;1.65;1.55;;;29.90;49.80;;;;;;5056244;28;20028;-75
2023/06/20 10:01:27;;;;;;;1.30;1.30;;;30.00;49.90;;;;;;5066998;28;20040;-74
2023/06/20 10:03:55;;;;;;;1.35;1.35;;;30.10;49.40;;;;;;5054282;28;20053;-76
2023/06/20 10:06:22;;;;;;;1.90;1.48;;;30.10;49.10;;;;;;5054253;28;20017;-74
2023/06/20 10:08:50;;;;;;;1.17;1.15;;;30.20;49.40;;;;;;5053919;28;20025;-74
2023/06/20 10:11:16;;;;;;;1.85;1.60;;;30.30;49.20;;;;;;5056614;28;20094;-74
2023/06/20 10:13:41;;;;;;;1.27;1.27;;;30.50;49.00;;;;;;5073538;28;20024;-74
2023/06/20 10:16:07;;;;;;;1.67;1.58;;;30.60;48.80;;;;;;5074547;28;20397;-74
2023/06/20 10:18:33;;;;;;;3.20;2.10;;;30.60;48.60;;;;;;5073739;28;20043;-74
2023/06/20 10:21:02;;;;;;;1.90;1.80;;;30.40;48.40;;;;;;5073411;28;20024;-74
2023/06/20 10:23:34;;;;;;;1.90;1.80;;;30.50;48.70;;;;;;5055290;28;20112;-75
2023/06/20 10:26:03;;;;;;;1.50;1.40;;;30.70;48.20;;;;;;5061123;28;20449;-74
2023/06/20 10:28:29;;;;;;;2.15;1.92;;;30.80;47.90;;;;;;5069208;28;20025;-74
2023/06/20 10:31:01;;;;;;;2.28;2.08;;;31.00;47.60;;;;;;5073251;28;20040;-74
2023/06/20 10:33:27;;;;;;;2.45;1.80;;;31.10;47.30;;;;;;5073112;28;20421;-74
2023/06/20 10:36:07;;;;;;;1.90;1.77;;;31.20;47.10;;;;;;5072369;28;20137;-74
2023/06/20 10:38:48;;;;;;;1.42;1.40;;;31.20;46.70;;;;;;5072981;28;20016;-74
2023/06/20 10:41:14;;;;;;;;;;;31.40;46.70;;;;;;5073604;28;20408;-74
2023/06/20 10:43:52;;;;;;;2.05;1.85;;;31.50;46.10;;;;;;5072102;28;19909;-75
2023/06/20 10:46:27;;;;;;;5.22;2.55;;;31.40;45.80;;;;;;5072866;28;20048;-74
2023/06/20 10:48:53;;;;;;;2.17;2.08;;;31.20;45.70;;;;;;5073011;28;20146;-74
2023/06/20 10:51:19;;;;;;;2.45;2.20;;;31.10;46.00;;;;;;5073020;28;20078;-74
2023/06/20 10:53:44;;;;;;;2.38;2.20;;;31.10;46.10;;;;;;5059568;28;20086;-74
2023/06/20 10:56:24;;;;;;;1.70;1.60;;;31.40;45.90;;;;;;5063034;28;20032;-75
2023/06/20 10:58:50;;;;;;;2.08;1.98;;;31.70;45.60;;;;;;5071579;28;20035;-75
2023/06/20 11:01:17;;;;;;;1.90;1.80;;;31.90;45.10;;;;;;5072762;28;20024;-73
2023/06/20 11:03:45;;;;;;;1.60;1.50;;;32.00;44.90;;;;;;5045057;28;20029;-75
2023/06/20 11:06:15;;;;;;;1.98;1.88;;;32.20;44.40;;;;;;5052415;28;20025;-74
2023/06/20 11:08:45;;;;;;;1.87;1.77;;;32.20;43.80;;;;;;5053082;28;20025;-75
2023/06/20 11:11:10;;;;;;;5.60;2.33;;;32.20;43.70;;;;;;5052938;28;20157;-74
2023/06/20 11:13:43;;;;;;;1.90;1.80;;;32.30;43.60;;;;;;5054005;28;20057;-74
2023/06/20 11:16:18;;;;;;;1.70;1.70;;;32.60;43.30;;;;;;5053150;28;20017;-74
2023/06/20 11:18:43;;;;;;;1.73;1.63;;;32.80;43.20;;;;;;5053432;28;20104;-74
2023/06/20 11:21:09;;;;;;;1.85;1.75;;;32.90;42.80;;;;;;5054428;28;20433;-73
2023/06/20 11:23:35;;;;;;;1.83;1.73;;;33.10;42.50;;;;;;5053358;28;20192;-74
2023/06/20 11:26:01;;;;;;;2.63;2.17;;;33.30;42.30;;;;;;5060129;28;20029;-74
2023/06/20 11:28:27;;;;;;;2.63;2.25;;;33.10;42.20;;;;;;5035107;28;20029;-74
2023/06/20 11:30:52;;;;;;;3.38;2.17;;;33.00;42.30;;;;;;5053350;28;20021;-74
2023/06/20 11:33:19;;;;;;;2.38;2.15;;;32.80;42.60;;;;;;5054625;28;20079;-74
2023/06/20 11:35:54;;;;;;;2.05;1.95;;;32.60;42.70;;;;;;5051762;28;20445;-73
2023/06/20 11:38:28;;;;;;;2.45;2.25;;;32.50;43.30;;;;;;5052316;28;20468;-74
2023/06/20 11:41:07;;;;;;;3.60;2.25;;;32.60;43.30;;;;;;5034677;28;20561;-75
2023/06/20 11:43:41;;;;;;;2.10;2.00;;;32.60;43.30;;;;;;5069365;28;20098;-75
2023/06/20 11:46:08;;;;;;;2.38;2.25;;;32.60;43.30;;;;;;5072634;28;20131;-74
2023/06/20 11:48:35;;;;;;;2.30;2.20;;;32.70;43.40;;;;;;5072013;28;20058;-74
2023/06/20 11:51:05;;;;;;;2.45;2.30;;;32.80;43.50;;;;;;5072676;28;20477;-75
2023/06/20 11:53:36;;;;;;;3.28;2.60;;;32.80;43.10;;;;;;5063385;28;20465;-75
2023/06/20 11:56:11;;;;;;;2.58;2.38;;;32.80;42.60;;;;;;5068384;28;20021;-74
2023/06/20 11:58:42;;;;;;;3.00;2.80;;;32.70;42.80;;;;;;5069244;28;20025;-74
2023/06/20 12:01:15;;;;;;;2.30;2.13;;;32.90;42.80;;;;;;5054263;28;20025;-74
2023/06/20 12:03:42;;;;;;;4.20;3.33;;;33.00;42.90;;;;;;5071689;28;20024;-73
2023/06/20 12:06:27;;;;;;;2.85;2.65;;;33.10;42.60;;;;;;5071703;28;20029;-75
2023/06/20 12:09:17;;;;;;;3.78;2.40;;;33.10;42.60;;;;;;5071969;28;20100;-75
2023/06/20 12:11:54;;;;;;;3.08;2.88;;;33.10;42.50;;;;;;5073085;28;20029;-75
2023/06/20 12:14:23;;;;;;;3.97;3.08;;;33.30;42.10;;;;;;5064179;28;20017;-74
2023/06/20 12:16:50;;;;;;;2.38;2.22;;;33.30;42.00;;;;;;5071459;28;20028;-75
2023/06/20 12:19:17;;;;;;;2.85;2.60;;;33.50;41.80;;;;;;5073561;28;20064;-75
2023/06/20 12:21:43;;;;;;;4.40;2.63;;;33.80;41.70;;;;;;5072366;28;20034;-74
2023/06/20 12:24:10;;;;;;;2.30;2.10;;;34.00;41.30;;;;;;5070746;28;20488;-74
2023/06/20 12:26:36;;;;;;;4.20;2.97;;;34.10;41.40;;;;;;5063382;28;20458;-75
2023/06/20 12:29:03;;;;;;;3.92;2.42;;;34.10;40.80;;;;;;5032617;28;20026;-74
2023/06/20 12:31:29;;;;;;;3.28;2.72;;;34.10;40.80;;;;;;5032395;28;20033;-74
2023/06/20 12:33:55;;;;;;;2.67;2.47;;;34.00;41.30;;;;;;5043236;28;20475;-75
2023/06/20 12:36:21;;;;;;;4.32;2.80;;;34.10;41.50;;;;;;5072421;28;20074;-73
2023/06/20 12:38:47;;;;;;;3.47;2.38;;;34.00;41.20;;;;;;5071622;28;20028;-73
2023/06/20 12:41:12;;;;;;;4.10;2.60;;;33.90;41.20;;;;;;5075071;28;20032;-74
2023/06/20 12:43:39;;;;;;;2.38;2.17;;;34.10;41.30;;;;;;5072219;28;20442;-75
2023/06/20 12:46:05;;;;;;;2.80;2.55;;;34.40;41.20;;;;;;5051075;28;20043;-74
2023/06/20 12:48:31;;;;;;;4.10;2.47;;;34.50;40.60;;;;;;5052476;28;20021;-74
2023/06/20 12:50:56;;;;;;;2.90;2.70;;;34.50;40.40;;;;;;5052240;28;20023;-74
2023/06/20 12:53:23;;;;;;;3.17;2.72;;;34.40;40.90;;;;;;5051456;28;20025;-74